Погода Порт-Хьюнемина неделю

Калифорния, США

01 - 07 сентября
  • 01сентября
    Сегодня
    +13°
    +24°
    Ясно и безоблачно
    ВремяПогодаТемператураВлажностьДавлениеВетер, м/сВероятность осадков
    02:00Ясно и безоблачно+17°C91 %761 мм1.2 м/с2 %
    05:00Ясно и безоблачно+16°C91 %760 мм1.9 м/с2 %
    08:00Ясно и безоблачно+18°C81 %761 мм2.2 м/с2 %
    11:00Ясно и безоблачно+23°C59 %762 мм4.3 м/с2 %
    14:00Ясно и безоблачно+24°C55 %761 мм5.7 м/с2 %
    17:00Ясно и безоблачно+23°C61 %760 мм6.1 м/с2 %
    20:00Ясно и безоблачно+19°C72 %760 мм4.3 м/с2 %
    23:00Ясно и безоблачно+16°C83 %761 мм2.6 м/с2 %
  • 02сентября
    Среда
    +15°
    +24°
    Ясно и безоблачно
    ВремяПогодаТемператураВлажностьДавлениеВетер, м/сВероятность осадков
    02:00Ясно и безоблачно+15°C89 %761 мм1.1 м/с2 %
    05:00Небольшая облачность+14°C90 %761 мм1.8 м/с2 %
    08:00Практически безоблачно+17°C80 %761 мм1.9 м/с2 %
    11:00Ясно и безоблачно+23°C53 %762 мм3.8 м/с2 %
    14:00Ясно и безоблачно+24°C56 %761 мм5.4 м/с2 %
    17:00Ясно и безоблачно+23°C58 %760 мм6.3 м/с2 %
    20:00Ясно и безоблачно+19°C79 %759 мм3.8 м/с2 %
    23:00Ясно и безоблачно+18°C88 %760 мм2.5 м/с2 %
  • 03сентября
    Четверг
    +15°
    +25°
    Ясно и безоблачно
    ВремяПогодаТемператураВлажностьДавлениеВетер, м/сВероятность осадков
    02:00Небольшая облачность+17°C93 %760 мм0.8 м/с2 %
    05:00Небольшая облачность+16°C93 %760 мм1.6 м/с2 %
    08:00Практически безоблачно+18°C82 %760 мм1.6 м/с2 %
    11:00Ясно и безоблачно+23°C60 %760 мм4.0 м/с2 %
    14:00Ясно и безоблачно+24°C63 %759 мм5.3 м/с2 %
    17:00Ясно и безоблачно+23°C64 %758 мм6.0 м/с2 %
    20:00Ясно и безоблачно+19°C82 %758 мм4.0 м/с2 %
    23:00Ясно и безоблачно+17°C89 %758 мм2.6 м/с2 %
  • 04сентября
    Пятница
    +15°
    +25°
    Ясно и безоблачно
    ВремяПогодаТемператураВлажностьДавлениеВетер, м/сВероятность осадков
    02:00Ясно и безоблачно+16°C97 %758 мм0.3 м/с2 %
    05:00Облачно с прояснениями+16°C97 %758 мм1.3 м/с2 %
    08:00Практически безоблачно+18°C89 %759 мм1.3 м/с2 %
    11:00Ясно и безоблачно+24°C60 %760 мм4.4 м/с2 %
    14:00Ясно и безоблачно+24°C60 %759 мм5.2 м/с2 %
    17:00Ясно и безоблачно+23°C68 %759 мм5.0 м/с2 %
    20:00Ясно и безоблачно+19°C86 %758 мм3.3 м/с2 %
    23:00Ясно и безоблачно+17°C91 %759 мм1.9 м/с2 %
  • 05сентября
    Суббота
    +16°
    +26°
    Ясно и безоблачно
    ВремяПогодаТемператураВлажностьДавлениеВетер, м/сВероятность осадков
    02:00Ясно и безоблачно+16°C93 %759 мм0.3 м/с2 %
    05:00Ясно и безоблачно+16°C89 %759 мм1.4 м/с2 %
    08:00Ясно и безоблачно+18°C80 %760 мм1.4 м/с4 %
    11:00Ясно и безоблачно+24°C55 %760 мм3.8 м/с8 %
    14:00Ясно и безоблачно+25°C53 %760 мм4.9 м/с16 %
    17:00Ясно и безоблачно+24°C60 %759 мм4.9 м/с17 %
    20:00Ясно и безоблачно+20°C77 %759 мм3.0 м/с12 %
    23:00Ясно и безоблачно+18°C85 %760 мм1.8 м/с18 %
  • 06сентября
    Воскресенье
    +17°
    +27°
    Ясно и безоблачно
    ВремяПогодаТемператураВлажностьДавлениеВетер, м/сВероятность осадков
    05:00Небольшая облачность+17°C83 %759 мм2.1 м/с29 %
    11:00Ясно и безоблачно+24°C76 %760 мм2.2 м/с29 %
    17:00Ясно и безоблачно+24°C77 %758 мм5.0 м/с29 %
    23:00Ясно и безоблачно+20°C76 %759 мм2.6 м/с22 %
  • 07сентября
    Понедельник
    +16°
    +26°
    Ясно и безоблачно
    ВремяПогодаТемператураВлажностьДавлениеВетер, м/сВероятность осадков
    05:00Ясно и безоблачно+17°C82 %759 мм1.9 м/с21 %
    11:00Ясно и безоблачно+25°C64 %760 мм2.7 м/с24 %
    17:00Ясно и безоблачно+24°C60 %758 мм4.3 м/с16 %
    23:00Ясно и безоблачно+19°C77 %758 мм1.8 м/с15 %
Мы используем cookies
Соглашаюсь